createdAt,value
2019-02-27T00:01:35.182Z,21.02
2019-02-27T00:04:04.582Z,18.67
2019-02-27T00:06:34.147Z,21.07
2019-02-27T00:09:05.245Z,19.25
2019-02-27T00:11:34.552Z,17.85
2019-02-27T00:14:03.864Z,23.70
2019-02-27T00:16:33.222Z,21.00
2019-02-27T00:19:05.395Z,30.82
2019-02-27T00:21:34.704Z,21.27
2019-02-27T00:24:04.060Z,19.80
2019-02-27T00:26:33.369Z,21.93
2019-02-27T00:29:02.972Z,19.15
2019-02-27T00:31:32.368Z,21.50
2019-02-27T00:34:01.679Z,21.93
2019-02-27T00:36:30.994Z,21.37
2019-02-27T00:39:00.421Z,20.32
2019-02-27T00:41:29.985Z,22.20
2019-02-27T00:44:01.335Z,23.70
2019-02-27T00:46:30.617Z,23.18
2019-02-27T00:48:59.931Z,21.60
2019-02-27T00:51:29.455Z,21.00
2019-02-27T00:53:59.019Z,20.97
2019-02-27T00:56:28.658Z,21.25
2019-02-27T00:59:00.131Z,20.37
2019-02-27T01:01:29.084Z,23.05
2019-02-27T01:04:00.992Z,22.15
2019-02-27T01:06:29.417Z,22.77
2019-02-27T01:08:59.129Z,30.02
2019-02-27T01:11:28.739Z,26.02
2019-02-27T01:13:58.349Z,22.67
2019-02-27T01:16:27.768Z,26.50
2019-02-27T01:18:57.099Z,21.70
2019-02-27T01:21:26.758Z,23.27
2019-02-27T01:23:56.113Z,20.12
2019-02-27T01:26:25.430Z,23.20
2019-02-27T01:28:55.915Z,24.57
2019-02-27T01:31:25.300Z,28.07
2019-02-27T01:33:54.610Z,22.87
2019-02-27T01:36:24.663Z,21.45
2019-02-27T01:38:54.765Z,18.90
2019-02-27T01:41:24.566Z,22.10
2019-02-27T01:43:54.524Z,18.00
2019-02-27T01:46:27.362Z,23.87
2019-02-27T01:48:55.212Z,19.95
2019-02-27T01:51:25.777Z,19.48
2019-02-27T01:53:55.686Z,23.90
2019-02-27T01:56:28.941Z,21.42
2019-02-27T01:58:56.292Z,22.62
2019-02-27T02:01:29.949Z,21.35
2019-02-27T02:03:56.947Z,24.47
2019-02-27T02:06:26.560Z,27.52
2019-02-27T02:09:13.150Z,26.12
2019-02-27T02:11:42.460Z,20.30
2019-02-27T02:14:42.058Z,22.58
2019-02-27T02:17:30.634Z,23.38
2019-02-27T02:20:43.463Z,30.65
2019-02-27T02:23:39.781Z,28.62
2019-02-27T02:26:32.145Z,25.25
2019-02-27T02:29:20.406Z,26.87
2019-02-27T02:32:04.096Z,26.57
2019-02-27T02:34:41.009Z,28.70
2019-02-27T02:37:21.236Z,28.65
2019-02-27T02:40:04.047Z,28.47
2019-02-27T02:42:54.488Z,25.90
2019-02-27T02:45:33.819Z,23.65
2019-02-27T02:48:35.158Z,27.95
2019-02-27T02:51:21.236Z,28.67
2019-02-27T02:54:24.149Z,28.25
2019-02-27T02:57:09.823Z,34.92
2019-02-27T02:59:49.855Z,25.55
2019-02-27T03:02:51.000Z,29.27
2019-02-27T03:05:42.473Z,27.77
2019-02-27T03:08:30.451Z,25.55
2019-02-27T03:11:34.506Z,31.95
2019-02-27T03:14:52.915Z,30.68
2019-02-27T03:17:38.344Z,28.20
2019-02-27T03:20:30.432Z,32.73
2019-02-27T03:23:33.337Z,29.92
2019-02-27T03:26:26.434Z,31.07
2019-02-27T03:29:38.578Z,27.15
2019-02-27T03:32:41.142Z,29.65
2019-02-27T03:35:48.252Z,30.02
2019-02-27T03:39:00.241Z,30.08
2019-02-27T03:42:05.789Z,27.90
2019-02-27T03:44:42.475Z,27.37
2019-02-27T03:47:55.763Z,28.67
2019-02-27T03:50:53.540Z,27.37
2019-02-27T03:53:33.226Z,28.50
2019-02-27T03:56:13.388Z,29.63
2019-02-27T03:59:05.606Z,31.40
2019-02-27T04:02:05.730Z,29.50
2019-02-27T04:04:57.186Z,30.27
2019-02-27T04:07:48.768Z,29.25
2019-02-27T04:10:18.122Z,25.48
2019-02-27T04:12:51.318Z,31.77
2019-02-27T04:15:18.945Z,28.02
2019-02-27T04:17:51.870Z,31.25
2019-02-27T04:20:18.241Z,28.70
2019-02-27T04:22:47.547Z,25.85
2019-02-27T04:25:16.918Z,27.20
2019-02-27T04:27:46.247Z,27.70
2019-02-27T04:30:16.789Z,26.17
2019-02-27T04:32:48.745Z,26.42
2019-02-27T04:35:17.450Z,27.37
2019-02-27T04:37:46.767Z,24.60
2019-02-27T04:40:16.127Z,24.98
2019-02-27T04:42:45.494Z,29.65
2019-02-27T04:45:34.600Z,26.80
2019-02-27T04:48:03.910Z,24.57
2019-02-27T04:50:33.224Z,27.05
2019-02-27T04:53:02.883Z,22.40
2019-02-27T04:55:32.204Z,27.85
2019-02-27T04:58:01.800Z,28.65
2019-02-27T05:00:31.427Z,30.57
2019-02-27T05:03:01.011Z,25.50
2019-02-27T05:05:30.567Z,29.12
2019-02-27T05:08:00.227Z,25.08
2019-02-27T05:10:29.589Z,22.85
2019-02-27T05:12:59.244Z,27.20
2019-02-27T05:15:28.853Z,28.47
2019-02-27T05:17:58.840Z,25.85
2019-02-27T05:20:28.168Z,24.27
2019-02-27T05:23:00.113Z,26.68
2019-02-27T05:25:28.811Z,25.45
2019-02-27T05:28:00.994Z,26.05
2019-02-27T05:30:29.516Z,27.65
2019-02-27T05:33:02.264Z,28.90
2019-02-27T05:35:30.581Z,24.30
2019-02-27T05:37:59.941Z,23.50
2019-02-27T05:40:29.249Z,24.47
2019-02-27T05:42:58.827Z,25.27
2019-02-27T05:45:31.225Z,26.95
2019-02-27T05:47:59.488Z,26.12
2019-02-27T05:50:28.803Z,29.23
2019-02-27T05:52:58.164Z,27.60
2019-02-27T05:55:27.784Z,25.35
2019-02-27T05:57:57.093Z,25.52
2019-02-27T06:00:26.517Z,24.63
2019-02-27T06:02:56.830Z,28.95
2019-02-27T06:05:26.441Z,23.60
2019-02-27T06:07:55.785Z,23.95
2019-02-27T06:10:25.102Z,26.68
2019-02-27T06:12:54.406Z,24.37
2019-02-27T06:15:26.090Z,26.65
2019-02-27T06:17:55.005Z,28.73
2019-02-27T06:20:24.319Z,27.65
2019-02-27T06:22:53.675Z,24.05
2019-02-27T06:25:23.965Z,29.32
2019-02-27T06:27:53.815Z,37.05
2019-02-27T06:30:23.168Z,25.75
2019-02-27T06:32:52.551Z,26.48
2019-02-27T06:35:22.106Z,29.87
2019-02-27T06:37:54.170Z,33.28
2019-02-27T06:40:23.479Z,30.27
2019-02-27T06:42:53.853Z,28.52
2019-02-27T06:45:23.862Z,23.10
2019-02-27T06:47:53.430Z,25.23
2019-02-27T06:50:25.255Z,24.92
2019-02-27T06:52:53.835Z,33.55
2019-02-27T06:55:28.097Z,28.05
2019-02-27T06:57:57.009Z,26.05
2019-02-27T07:00:27.091Z,27.15
2019-02-27T07:02:56.412Z,24.87
2019-02-27T07:05:25.718Z,24.07
2019-02-27T07:07:55.412Z,26.40
2019-02-27T07:10:25.013Z,28.27
2019-02-27T07:12:55.339Z,26.23
2019-02-27T07:15:25.260Z,24.50
2019-02-27T07:17:54.598Z,25.60
2019-02-27T07:20:25.145Z,27.87
2019-02-27T07:22:54.897Z,21.40
2019-02-27T07:25:25.014Z,27.75
2019-02-27T07:27:54.316Z,21.45
2019-02-27T07:30:24.010Z,26.30
2019-02-27T07:32:53.679Z,22.02
2019-02-27T07:35:25.484Z,22.22
2019-02-27T07:37:54.094Z,27.22
2019-02-27T07:40:23.407Z,27.70
2019-02-27T07:42:52.722Z,27.50
2019-02-27T07:45:23.449Z,27.55
2019-02-27T07:47:52.713Z,30.32
2019-02-27T07:50:22.608Z,35.10
2019-02-27T07:52:52.323Z,26.13
2019-02-27T07:55:23.614Z,33.18
2019-02-27T07:57:53.070Z,25.47
2019-02-27T08:00:23.579Z,23.55
2019-02-27T08:02:53.216Z,24.02
2019-02-27T08:05:25.901Z,27.27
2019-02-27T08:07:54.249Z,23.32
2019-02-27T08:10:25.245Z,21.87
2019-02-27T08:12:56.440Z,21.82
2019-02-27T08:15:26.179Z,26.02
2019-02-27T08:17:57.999Z,26.50
2019-02-27T08:20:27.138Z,22.85
2019-02-27T08:22:57.897Z,19.23
2019-02-27T08:25:27.445Z,17.92
2019-02-27T08:27:57.180Z,19.35
2019-02-27T08:30:28.999Z,26.02
2019-02-27T08:32:58.320Z,22.58
2019-02-27T08:35:27.881Z,21.35
2019-02-27T08:38:02.513Z,19.62
2019-02-27T08:40:28.342Z,20.43
2019-02-27T08:42:57.713Z,18.50
2019-02-27T08:45:27.775Z,23.18
2019-02-27T08:47:57.264Z,20.10
2019-02-27T08:50:29.294Z,22.32
2019-02-27T08:52:58.074Z,20.55
2019-02-27T08:55:27.669Z,29.42
2019-02-27T08:57:57.223Z,27.50
2019-02-27T09:00:34.627Z,24.75
2019-02-27T09:03:03.968Z,22.45
2019-02-27T09:05:33.262Z,23.30
2019-02-27T09:08:02.985Z,19.67
2019-02-27T09:10:32.288Z,22.87
2019-02-27T09:13:05.254Z,20.68
2019-02-27T09:15:33.156Z,22.82
2019-02-27T09:18:02.841Z,18.48
2019-02-27T09:20:32.140Z,21.07
2019-02-27T09:23:01.546Z,18.37
2019-02-27T09:25:31.160Z,23.50
2019-02-27T09:28:00.465Z,23.45
2019-02-27T09:30:30.220Z,20.92
2019-02-27T09:32:59.785Z,22.48
2019-02-27T09:35:32.529Z,20.77
2019-02-27T09:38:00.822Z,21.45
2019-02-27T09:40:30.763Z,20.05
2019-02-27T09:43:00.837Z,21.23
2019-02-27T09:45:35.644Z,19.37
2019-02-27T09:48:06.106Z,18.90
2019-02-27T09:50:48.357Z,27.62
2019-02-27T09:53:18.060Z,21.25
2019-02-27T09:55:47.752Z,27.13
2019-02-27T09:58:17.065Z,19.73
2019-02-27T10:00:50.707Z,19.35
2019-02-27T10:03:21.164Z,20.27
2019-02-27T10:05:51.041Z,26.57
2019-02-27T10:08:20.433Z,20.92
2019-02-27T10:10:50.315Z,23.20
2019-02-27T10:13:19.700Z,26.40
2019-02-27T10:15:49.003Z,20.62
2019-02-27T10:18:20.113Z,24.80
2019-02-27T10:20:52.449Z,24.82
2019-02-27T10:23:24.137Z,21.20
2019-02-27T10:25:53.768Z,22.77
2019-02-27T10:28:23.390Z,18.70
2019-02-27T10:30:52.768Z,19.85
2019-02-27T10:33:22.183Z,18.50
2019-02-27T10:35:51.646Z,24.12
2019-02-27T10:38:21.120Z,16.20
2019-02-27T10:40:50.806Z,18.92
2019-02-27T10:43:21.164Z,19.45
2019-02-27T10:45:50.609Z,21.82
2019-02-27T10:48:19.978Z,22.52
2019-02-27T10:50:49.291Z,17.80
2019-02-27T10:53:18.613Z,19.75
2019-02-27T10:55:49.313Z,17.02
2019-02-27T10:58:19.145Z,15.98
2019-02-27T11:00:50.438Z,22.42
2019-02-27T11:03:19.945Z,19.65
2019-02-27T11:05:52.369Z,16.42
2019-02-27T11:08:20.354Z,15.38
2019-02-27T11:10:49.895Z,15.72
2019-02-27T11:13:19.277Z,20.72
2019-02-27T11:15:49.125Z,19.05
2019-02-27T11:18:18.493Z,21.23
2019-02-27T11:20:47.810Z,24.60
2019-02-27T11:23:17.198Z,21.60
2019-02-27T11:25:46.568Z,23.00
2019-02-27T11:28:16.122Z,18.35
2019-02-27T11:30:46.406Z,18.50
2019-02-27T11:33:25.055Z,19.27
2019-02-27T11:35:47.055Z,18.73
2019-02-27T11:38:16.444Z,17.85
2019-02-27T11:40:45.819Z,17.23
2019-02-27T11:43:17.160Z,19.07
2019-02-27T11:45:46.449Z,22.45
2019-02-27T11:48:15.795Z,18.73
2019-02-27T11:50:45.475Z,15.38
2019-02-27T11:53:14.790Z,19.75
2019-02-27T11:55:47.043Z,16.52
2019-02-27T11:58:15.451Z,17.30
2019-02-27T12:00:44.833Z,15.95
2019-02-27T12:03:14.143Z,16.87
2019-02-27T12:05:43.515Z,15.93
2019-02-27T12:08:12.835Z,18.85
2019-02-27T12:10:42.185Z,19.17
2019-02-27T12:13:11.519Z,16.23
2019-02-27T12:15:43.381Z,19.40
2019-02-27T12:18:12.143Z,16.15
2019-02-27T12:20:41.597Z,14.28
2019-02-27T12:23:11.159Z,22.27
2019-02-27T12:25:40.618Z,17.85
2019-02-27T12:28:10.334Z,20.23
2019-02-27T12:30:39.969Z,17.98
2019-02-27T12:33:09.448Z,17.98
2019-02-27T12:35:39.086Z,15.05
2019-02-27T12:38:08.607Z,17.95
2019-02-27T12:40:37.990Z,17.85
2019-02-27T12:43:07.379Z,16.60
2019-02-27T12:45:36.691Z,20.02
2019-02-27T12:48:06.220Z,18.15
2019-02-27T12:50:35.994Z,27.50
2019-02-27T12:53:06.464Z,16.55
2019-02-27T12:55:36.464Z,15.98
2019-02-27T12:58:06.080Z,20.10
2019-02-27T13:00:36.900Z,20.48
2019-02-27T13:03:09.355Z,21.62
2019-02-27T13:05:37.745Z,18.30
2019-02-27T13:08:07.393Z,21.77
2019-02-27T13:10:36.771Z,19.98
2019-02-27T13:13:06.183Z,20.43
2019-02-27T13:15:35.497Z,20.80
2019-02-27T13:18:04.920Z,21.62
2019-02-27T13:20:37.562Z,26.20
2019-02-27T13:23:07.210Z,19.27
2019-02-27T13:25:36.886Z,18.30
2019-02-27T13:28:06.329Z,18.50
2019-02-27T13:30:35.648Z,15.45
2019-02-27T13:33:05.180Z,17.60
2019-02-27T13:35:34.834Z,18.42
2019-02-27T13:38:04.216Z,16.17
2019-02-27T13:40:35.831Z,15.18
2019-02-27T13:43:04.884Z,17.17
2019-02-27T13:45:34.272Z,15.93
2019-02-27T13:48:05.920Z,17.12
2019-02-27T13:50:34.750Z,16.77
2019-02-27T13:53:04.134Z,18.25
2019-02-27T13:55:33.501Z,16.15
2019-02-27T13:58:03.804Z,20.30
2019-02-27T14:00:38.284Z,14.63
2019-02-27T14:03:12.837Z,17.87
2019-02-27T14:05:41.757Z,16.55
2019-02-27T14:08:11.069Z,13.28
2019-02-27T14:10:40.750Z,12.47
2019-02-27T14:13:10.065Z,12.05
2019-02-27T14:15:39.615Z,10.88
2019-02-27T14:18:09.260Z,15.98
2019-02-27T14:20:38.584Z,11.95
2019-02-27T14:23:08.366Z,16.90
2019-02-27T14:25:37.803Z,14.73
2019-02-27T14:28:07.116Z,11.40
2019-02-27T14:30:50.762Z,10.32
2019-02-27T14:33:20.626Z,11.18
2019-02-27T14:35:50.047Z,12.75
2019-02-27T14:38:21.821Z,14.00
2019-02-27T14:40:50.481Z,14.68
2019-02-27T14:43:19.804Z,11.00
2019-02-27T14:45:50.728Z,12.20
2019-02-27T14:48:21.419Z,15.18
2019-02-27T14:50:51.711Z,12.93
2019-02-27T14:53:21.075Z,10.23
2019-02-27T14:55:50.688Z,11.55
2019-02-27T14:58:24.107Z,13.03
2019-02-27T15:00:51.162Z,12.65
2019-02-27T15:03:20.467Z,14.07
2019-02-27T15:05:49.802Z,12.65
2019-02-27T15:08:19.177Z,18.07
2019-02-27T15:10:48.486Z,15.20
2019-02-27T15:13:17.807Z,14.20
2019-02-27T15:15:47.484Z,13.08
2019-02-27T15:18:16.826Z,16.42
2019-02-27T15:20:46.140Z,14.30
2019-02-27T15:23:15.500Z,12.65
2019-02-27T15:25:44.811Z,13.43
2019-02-27T15:28:14.478Z,14.00
2019-02-27T15:30:46.394Z,15.45
2019-02-27T15:33:16.435Z,14.98
2019-02-27T15:35:45.966Z,13.98
2019-02-27T15:38:15.396Z,12.82
2019-02-27T15:40:45.298Z,13.30
2019-02-27T15:43:17.293Z,13.98
2019-02-27T15:45:47.979Z,14.05
2019-02-27T15:48:16.888Z,12.45
2019-02-27T15:50:46.304Z,11.78
2019-02-27T15:53:15.898Z,12.50
2019-02-27T15:55:45.675Z,14.15
2019-02-27T15:58:15.031Z,11.43
2019-02-27T16:00:44.347Z,14.00
2019-02-27T16:03:15.855Z,15.10
2019-02-27T16:05:45.838Z,16.67
2019-02-27T16:08:15.412Z,15.28
2019-02-27T16:10:54.349Z,15.65
2019-02-27T16:13:16.158Z,14.80
2019-02-27T16:15:48.497Z,16.70
2019-02-27T16:18:19.443Z,14.00
2019-02-27T16:20:49.979Z,12.75
2019-02-27T16:23:20.044Z,12.20
2019-02-27T16:25:52.846Z,16.95
2019-02-27T16:28:20.560Z,17.52
2019-02-27T16:30:49.887Z,16.52
2019-02-27T16:33:23.551Z,20.15
2019-02-27T16:35:50.305Z,15.98
2019-02-27T16:38:19.934Z,17.30
2019-02-27T16:40:52.454Z,17.30
2019-02-27T16:43:20.389Z,17.02
2019-02-27T16:45:49.740Z,15.75
2019-02-27T16:48:19.443Z,15.28
2019-02-27T16:50:48.789Z,24.67
2019-02-27T16:53:19.495Z,18.92
2019-02-27T16:55:48.947Z,19.05
2019-02-27T16:58:18.277Z,16.80
2019-02-27T17:00:47.611Z,25.43
2019-02-27T17:03:16.928Z,18.87
2019-02-27T17:05:46.232Z,30.23
2019-02-27T17:08:15.582Z,23.95
2019-02-27T17:10:44.985Z,26.97
2019-02-27T17:13:15.385Z,26.27
2019-02-27T17:15:44.943Z,23.73
2019-02-27T17:18:14.420Z,20.20
2019-02-27T17:20:46.518Z,20.10
2019-02-27T17:23:14.820Z,17.82
2019-02-27T17:25:44.196Z,16.65
2019-02-27T17:28:13.512Z,14.00
2019-02-27T17:30:43.281Z,24.55
2019-02-27T17:33:12.660Z,14.05
2019-02-27T17:35:42.265Z,21.17
2019-02-27T17:38:13.702Z,13.10
2019-02-27T17:40:42.718Z,17.57
2019-02-27T17:43:12.023Z,15.68
2019-02-27T17:45:41.328Z,24.75
2019-02-27T17:48:12.445Z,20.95
2019-02-27T17:50:42.037Z,19.77
2019-02-27T17:53:11.354Z,20.72
2019-02-27T17:55:41.597Z,19.12
2019-02-27T17:58:11.918Z,15.65
2019-02-27T18:00:43.190Z,19.80
2019-02-27T18:03:12.826Z,19.90
2019-02-27T18:05:42.451Z,22.73
2019-02-27T18:08:15.975Z,17.60
2019-02-27T18:10:42.844Z,21.42
2019-02-27T18:13:12.162Z,19.12
2019-02-27T18:15:41.485Z,20.88
2019-02-27T18:18:10.836Z,21.77
2019-02-27T18:20:40.190Z,18.95
2019-02-27T18:23:09.820Z,21.82
2019-02-27T18:25:42.109Z,23.12
2019-02-27T18:28:11.047Z,17.92
2019-02-27T18:30:42.629Z,20.82
2019-02-27T18:33:14.300Z,31.85
2019-02-27T18:35:43.466Z,24.25
2019-02-27T18:38:13.147Z,19.50
2019-02-27T18:40:42.891Z,21.33
2019-02-27T18:43:13.152Z,22.73
2019-02-27T18:45:45.380Z,18.82
2019-02-27T18:48:15.210Z,19.67
2019-02-27T18:50:44.730Z,22.37
2019-02-27T18:53:14.102Z,21.00
2019-02-27T18:55:44.096Z,23.77
2019-02-27T18:58:13.599Z,21.85
2019-02-27T19:00:42.976Z,24.50
2019-02-27T19:03:13.289Z,28.15
2019-02-27T19:05:42.656Z,21.93
2019-02-27T19:08:11.969Z,21.90
2019-02-27T19:10:42.604Z,21.45
2019-02-27T19:13:12.381Z,20.65
2019-02-27T19:15:45.274Z,20.15
2019-02-27T19:18:13.646Z,24.05
2019-02-27T19:20:48.272Z,24.72
2019-02-27T19:23:18.506Z,29.27
2019-02-27T19:25:48.128Z,23.45
2019-02-27T19:28:17.446Z,25.70
2019-02-27T19:30:46.866Z,26.00
2019-02-27T19:33:16.443Z,20.68
2019-02-27T19:35:45.842Z,19.82
2019-02-27T19:38:15.507Z,19.12
2019-02-27T19:40:44.955Z,24.72
2019-02-27T19:43:14.348Z,20.02
2019-02-27T19:45:43.712Z,19.25
2019-02-27T19:48:13.431Z,23.50
2019-02-27T19:50:46.249Z,24.27
2019-02-27T19:53:14.004Z,20.20
2019-02-27T19:55:43.590Z,22.73
2019-02-27T19:58:16.974Z,22.55
2019-02-27T20:00:48.504Z,19.42
2019-02-27T20:03:15.556Z,16.27
2019-02-27T20:05:45.188Z,27.95
2019-02-27T20:08:14.849Z,17.00
2019-02-27T20:10:44.547Z,24.05
2019-02-27T20:13:13.932Z,28.85
2019-02-27T20:15:45.675Z,26.87
2019-02-27T20:18:15.208Z,28.30
2019-02-27T20:20:45.233Z,27.02
2019-02-27T20:23:15.133Z,25.17
2019-02-27T20:25:44.606Z,25.20
2019-02-27T20:28:14.635Z,27.60
2019-02-27T20:30:44.125Z,26.55
2019-02-27T20:33:13.886Z,21.60
2019-02-27T20:35:43.325Z,23.87
2019-02-27T20:38:15.990Z,23.62
2019-02-27T20:40:43.994Z,20.80
2019-02-27T20:43:13.360Z,24.10
2019-02-27T20:45:43.533Z,25.35
2019-02-27T20:48:13.456Z,24.50
2019-02-27T20:50:49.859Z,26.55
2019-02-27T20:53:21.025Z,24.63
2019-02-27T20:55:50.223Z,27.52
2019-02-27T20:58:22.024Z,32.70
2019-02-27T21:00:50.730Z,28.00
2019-02-27T21:03:20.059Z,32.88
2019-02-27T21:05:52.731Z,30.32
2019-02-27T21:08:22.434Z,33.00
2019-02-27T21:10:55.249Z,30.20
2019-02-27T21:13:23.350Z,27.82
2019-02-27T21:15:52.661Z,28.38
2019-02-27T21:18:21.980Z,30.92
2019-02-27T21:20:51.360Z,31.12
2019-02-27T21:23:20.945Z,31.37
2019-02-27T21:25:50.270Z,28.00
2019-02-27T21:28:21.249Z,30.08
2019-02-27T21:30:52.354Z,29.25
2019-02-27T21:33:22.086Z,33.38
2019-02-27T21:35:51.675Z,34.90
2019-02-27T21:38:20.997Z,29.52
2019-02-27T21:40:50.313Z,32.15
2019-02-27T21:43:25.383Z,31.60
2019-02-27T21:45:50.786Z,36.20
2019-02-27T21:48:20.107Z,29.67
2019-02-27T21:50:49.719Z,31.95
2019-02-27T21:53:19.043Z,31.70
2019-02-27T21:55:48.733Z,31.07
2019-02-27T21:58:20.680Z,32.28
2019-02-27T22:00:49.159Z,31.37
2019-02-27T22:03:18.497Z,29.98
2019-02-27T22:05:52.665Z,34.08
2019-02-27T22:08:20.032Z,32.00
2019-02-27T22:10:53.068Z,36.70
2019-02-27T22:13:28.878Z,33.55
2019-02-27T22:15:55.805Z,35.92
2019-02-27T22:18:22.798Z,32.00
2019-02-27T22:20:52.429Z,33.38
2019-02-27T22:23:21.748Z,32.13
2019-02-27T22:25:51.070Z,33.28
2019-02-27T22:28:20.805Z,32.40
2019-02-27T22:30:50.791Z,33.20
2019-02-27T22:33:22.982Z,31.00
2019-02-27T22:35:51.216Z,33.80
2019-02-27T22:38:25.889Z,35.65
2019-02-27T22:40:51.862Z,36.13
2019-02-27T22:43:22.114Z,35.48
2019-02-27T22:45:52.418Z,45.33
2019-02-27T22:48:21.785Z,32.58
2019-02-27T22:50:51.142Z,35.68
2019-02-27T22:53:20.553Z,39.90
2019-02-27T22:55:49.865Z,37.33
2019-02-27T22:58:19.842Z,36.95
2019-02-27T23:01:01.883Z,38.98
2019-02-27T23:03:36.063Z,37.93
2019-02-27T23:06:06.183Z,38.23
2019-02-27T23:08:37.218Z,36.85
2019-02-27T23:11:07.183Z,38.17
2019-02-27T23:13:36.944Z,37.80
2019-02-27T23:16:06.725Z,36.58
2019-02-27T23:18:37.365Z,34.20
2019-02-27T23:21:07.608Z,34.55
2019-02-27T23:23:37.489Z,42.25
2019-02-27T23:26:07.443Z,37.93
2019-02-27T23:28:36.838Z,39.50
2019-02-27T23:31:06.142Z,40.83
2019-02-27T23:33:36.677Z,41.28
2019-02-27T23:36:06.678Z,38.53
2019-02-27T23:38:35.976Z,36.40
2019-02-27T23:41:05.489Z,37.90
2019-02-27T23:43:35.087Z,37.83
2019-02-27T23:46:05.570Z,38.95
2019-02-27T23:48:36.221Z,43.42
2019-02-27T23:51:06.259Z,39.08
2019-02-27T23:53:35.573Z,37.73
2019-02-27T23:56:05.762Z,41.02
2019-02-27T23:58:35.087Z,35.08
